Time;durP1;ratioP1;P1;durP2;ratioP2;P2;SDS_P1;SDS_P2;PMS_P1;PMS_P2;Temp;Humidity;BMP_temperature;BMP_pressure;BME280_temperature;BME280_humidity;BME280_pressure;Samples;Min_cycle;Max_cycle;Signal;HPM_P1;HPM_P2
2022/07/01 00:00:31;;;;;;;7.88;3.55;;;14.90;99.90;;;;;;5017448;28;20483;-63
2022/07/01 00:02:57;;;;;;;5.88;3.20;;;14.70;99.90;;;;;;5017294;28;20042;-64
2022/07/01 00:05:23;;;;;;;8.93;3.25;;;14.60;99.90;;;;;;5016999;28;20098;-63
2022/07/01 00:07:49;;;;;;;5.85;3.28;;;14.90;99.90;;;;;;5017479;28;20538;-63
2022/07/01 00:10:15;;;;;;;7.00;2.90;;;14.80;99.90;;;;;;5016446;28;20042;-63
2022/07/01 00:12:41;;;;;;;13.15;3.17;;;14.80;99.90;;;;;;5017137;28;20037;-63
2022/07/01 00:15:09;;;;;;;8.80;3.03;;;15.00;99.90;;;;;;5017174;28;20065;-63
2022/07/01 00:17:35;;;;;;;8.05;2.92;;;14.80;99.90;;;;;;5015919;28;20045;-63
2022/07/01 00:20:01;;;;;;;3.72;2.65;;;14.90;99.90;;;;;;5017316;28;20421;-63
2022/07/01 00:22:27;;;;;;;4.45;2.58;;;15.00;99.90;;;;;;5017026;28;20357;-63
2022/07/01 00:24:54;;;;;;;8.55;3.55;;;15.00;99.90;;;;;;5016561;28;20054;-64
2022/07/01 00:27:19;;;;;;;5.53;3.33;;;14.90;99.90;;;;;;5016877;28;20050;-63
2022/07/01 00:29:45;;;;;;;5.57;3.50;;;14.80;99.90;;;;;;5016811;28;20111;-63
2022/07/01 00:32:10;;;;;;;6.70;2.97;;;14.70;99.90;;;;;;5015331;28;20054;-63
2022/07/01 00:34:37;;;;;;;4.85;3.20;;;14.90;99.90;;;;;;5016701;28;20423;-64
2022/07/01 00:37:03;;;;;;;4.53;2.72;;;14.60;99.90;;;;;;5016657;28;20064;-64
2022/07/01 00:39:31;;;;;;;3.03;2.53;;;14.70;99.90;;;;;;5016577;28;20041;-64
2022/07/01 00:42:00;;;;;;;8.98;3.25;;;14.70;99.90;;;;;;5016788;28;20045;-63
2022/07/01 00:44:27;;;;;;;6.53;2.95;;;14.70;99.90;;;;;;5016758;28;20045;-63
2022/07/01 00:46:52;;;;;;;9.20;4.05;;;14.70;99.90;;;;;;5015945;28;20128;-63
2022/07/01 00:49:19;;;;;;;7.88;3.15;;;14.60;99.90;;;;;;5016563;28;20124;-63
2022/07/01 00:51:44;;;;;;;3.42;2.92;;;14.70;99.90;;;;;;5016512;28;20046;-64
2022/07/01 00:54:11;;;;;;;6.40;3.10;;;14.70;99.90;;;;;;5016400;28;20176;-63
2022/07/01 00:56:37;;;;;;;6.82;3.47;;;14.80;99.90;;;;;;5016247;28;20046;-64
2022/07/01 00:59:03;;;;;;;4.10;3.30;;;14.60;99.90;;;;;;5016224;28;20045;-63
2022/07/01 01:01:29;;;;;;;4.18;3.58;;;14.60;99.90;;;;;;5015611;28;20514;-64
2022/07/01 01:03:55;;;;;;;8.75;3.88;;;14.60;99.90;;;;;;5016294;28;20054;-63
2022/07/01 01:06:21;;;;;;;8.57;4.50;;;14.50;99.90;;;;;;5016283;28;20046;-64
2022/07/01 01:08:48;;;;;;;6.57;4.75;;;14.70;99.90;;;;;;5016313;28;20056;-63
2022/07/01 01:11:15;;;;;;;7.32;4.50;;;14.80;99.90;;;;;;5016390;28;20141;-63
2022/07/01 01:13:40;;;;;;;11.45;5.10;;;14.50;99.90;;;;;;5016009;28;20038;-63
2022/07/01 01:16:07;;;;;;;6.05;5.05;;;14.60;99.90;;;;;;5015324;28;20049;-63
2022/07/01 01:18:33;;;;;;;7.78;5.72;;;14.90;99.90;;;;;;5016133;28;20041;-63
2022/07/01 01:20:59;;;;;;;9.45;5.78;;;14.60;99.90;;;;;;5015267;28;20041;-64
2022/07/01 01:23:24;;;;;;;7.28;6.15;;;14.80;99.90;;;;;;5015462;28;20141;-64
2022/07/01 01:25:50;;;;;;;9.77;6.63;;;14.60;99.90;;;;;;5015611;28;20050;-63
2022/07/01 01:28:16;;;;;;;8.20;5.82;;;14.80;99.90;;;;;;5015799;28;20057;-63
2022/07/01 01:30:41;;;;;;;7.97;5.57;;;14.80;99.90;;;;;;5015129;28;20038;-63
2022/07/01 01:33:11;;;;;;;11.23;6.63;;;14.80;99.90;;;;;;5031386;28;20053;-64
2022/07/01 01:35:38;;;;;;;10.35;5.85;;;14.80;99.90;;;;;;5035337;28;20471;-64
2022/07/01 01:38:03;;;;;;;7.78;6.75;;;14.80;99.90;;;;;;5035434;28;20056;-63
2022/07/01 01:40:29;;;;;;;9.38;7.43;;;14.80;99.90;;;;;;5035426;28;20045;-63
2022/07/01 01:42:54;;;;;;;11.50;6.35;;;14.60;99.90;;;;;;5035054;28;20125;-63
2022/07/01 01:45:20;;;;;;;11.07;6.45;;;14.60;99.90;;;;;;5030482;28;20116;-63
2022/07/01 01:47:46;;;;;;;11.90;8.05;;;14.60;99.90;;;;;;5015599;28;20063;-63
2022/07/01 01:50:13;;;;;;;12.63;7.45;;;14.90;99.90;;;;;;5015655;28;20041;-64
2022/07/01 01:52:42;;;;;;;12.00;8.52;;;14.90;99.90;;;;;;5015143;28;20050;-63
2022/07/01 01:55:09;;;;;;;12.93;7.85;;;14.80;99.90;;;;;;5015482;28;20042;-64
2022/07/01 01:57:34;;;;;;;11.40;8.40;;;14.60;99.90;;;;;;5015344;28;20125;-63
2022/07/01 02:00:00;;;;;;;10.15;8.75;;;14.90;99.90;;;;;;5014880;28;20516;-63
2022/07/01 02:02:26;;;;;;;12.10;8.90;;;14.80;99.90;;;;;;5014486;28;20046;-64
2022/07/01 02:04:52;;;;;;;9.68;6.97;;;14.60;99.90;;;;;;4995613;28;20523;-64
2022/07/01 02:07:17;;;;;;;8.50;7.15;;;14.90;99.90;;;;;;4995287;28;20089;-63
2022/07/01 02:09:43;;;;;;;8.00;6.10;;;14.80;99.90;;;;;;4995519;28;20046;-63
2022/07/01 02:12:09;;;;;;;6.25;5.03;;;14.80;99.90;;;;;;4995827;28;20050;-63
2022/07/01 02:14:34;;;;;;;6.22;5.45;;;14.50;99.90;;;;;;4997215;28;20069;-63
2022/07/01 02:17:00;;;;;;;5.95;4.63;;;14.60;99.90;;;;;;5014683;28;20046;-63
2022/07/01 02:19:26;;;;;;;5.75;4.50;;;14.70;99.90;;;;;;5015092;28;20097;-64
2022/07/01 02:21:51;;;;;;;5.40;4.15;;;14.70;99.90;;;;;;5015006;28;20050;-63
2022/07/01 02:24:18;;;;;;;5.82;3.85;;;14.60;99.90;;;;;;5015015;28;20445;-64
2022/07/01 02:26:44;;;;;;;7.45;3.10;;;14.70;99.90;;;;;;5014969;28;20042;-63
2022/07/01 02:29:10;;;;;;;3.78;2.90;;;14.50;99.90;;;;;;5014618;28;20121;-63
2022/07/01 02:31:35;;;;;;;4.82;3.05;;;14.50;99.90;;;;;;5014233;28;20516;-63
2022/07/01 02:34:01;;;;;;;5.35;3.15;;;14.30;99.90;;;;;;5014513;28;20384;-64
2022/07/01 02:36:27;;;;;;;7.03;3.60;;;14.40;99.90;;;;;;5014572;28;20042;-63
2022/07/01 02:38:53;;;;;;;8.55;4.05;;;14.20;99.90;;;;;;5014811;28;20042;-63
2022/07/01 02:41:18;;;;;;;5.30;3.47;;;14.20;99.90;;;;;;5015055;28;20042;-63
2022/07/01 02:43:44;;;;;;;6.20;3.88;;;14.40;99.90;;;;;;5014949;28;20038;-63
2022/07/01 02:46:09;;;;;;;5.47;3.80;;;14.40;99.90;;;;;;5014370;28;20368;-63
2022/07/01 02:48:35;;;;;;;5.40;4.00;;;14.30;99.90;;;;;;5015083;28;20168;-64
2022/07/01 02:51:01;;;;;;;12.60;4.47;;;14.30;99.90;;;;;;5014796;28;20357;-63
2022/07/01 02:53:26;;;;;;;7.70;5.18;;;14.30;99.90;;;;;;5014525;28;20050;-64
2022/07/01 02:55:52;;;;;;;10.10;4.82;;;14.30;99.90;;;;;;5014862;28;20030;-63
2022/07/01 02:58:17;;;;;;;5.70;5.00;;;14.20;99.90;;;;;;5014885;28;20108;-63
2022/07/01 03:00:43;;;;;;;7.38;5.68;;;14.40;99.90;;;;;;5013465;28;20049;-63
2022/07/01 03:03:09;;;;;;;8.00;6.47;;;14.50;99.90;;;;;;5014702;28;20112;-63
2022/07/01 03:05:34;;;;;;;9.50;6.55;;;14.40;99.90;;;;;;5018037;28;20053;-64
2022/07/01 03:08:00;;;;;;;11.00;7.38;;;14.50;99.90;;;;;;5018363;28;20038;-63
2022/07/01 03:10:26;;;;;;;10.18;9.10;;;14.60;99.90;;;;;;5017755;28;20049;-63
2022/07/01 03:12:52;;;;;;;14.20;9.02;;;14.40;99.90;;;;;;5018458;28;20345;-63
2022/07/01 03:15:18;;;;;;;10.98;8.43;;;14.40;99.90;;;;;;5018360;28;20112;-63
2022/07/01 03:17:45;;;;;;;13.77;10.32;;;14.40;99.90;;;;;;5018468;28;20042;-63
2022/07/01 03:20:14;;;;;;;13.32;8.45;;;14.60;99.90;;;;;;5018225;28;20479;-64
2022/07/01 03:22:41;;;;;;;13.38;9.85;;;14.50;99.90;;;;;;5018024;28;20057;-63
2022/07/01 03:25:07;;;;;;;13.80;10.07;;;14.60;99.90;;;;;;4999515;28;20244;-63
2022/07/01 03:27:33;;;;;;;15.88;10.52;;;14.60;99.90;;;;;;5018266;28;20124;-63
2022/07/01 03:30:00;;;;;;;12.98;9.82;;;14.40;99.90;;;;;;5018108;28;20085;-63
2022/07/01 03:32:26;;;;;;;15.77;10.85;;;14.40;99.90;;;;;;5017938;28;20034;-64
2022/07/01 03:34:52;;;;;;;13.77;9.90;;;14.50;99.90;;;;;;5017870;28;20088;-64
2022/07/01 03:37:19;;;;;;;14.27;9.13;;;14.30;99.90;;;;;;5017831;28;20046;-64
2022/07/01 03:39:46;;;;;;;12.77;8.25;;;14.30;99.90;;;;;;5023394;28;20068;-63
2022/07/01 03:42:12;;;;;;;12.63;8.82;;;14.40;99.90;;;;;;5037955;28;20049;-63
2022/07/01 03:44:38;;;;;;;12.43;7.97;;;14.20;99.90;;;;;;5037637;28;20048;-63
2022/07/01 03:47:05;;;;;;;11.85;7.55;;;14.40;99.90;;;;;;5037411;28;20069;-64
2022/07/01 03:49:32;;;;;;;12.43;7.47;;;14.30;99.90;;;;;;5037381;28;20045;-63
2022/07/01 03:51:57;;;;;;;18.42;8.90;;;14.20;99.90;;;;;;5037348;28;20096;-63
2022/07/01 03:54:38;;;;;;;11.15;7.68;;;14.10;99.90;;;;;;4992352;28;20085;-63
2022/07/01 03:57:09;;;;;;;16.50;7.13;;;14.30;99.90;;;;;;5017515;28;20049;-63
2022/07/01 03:59:36;;;;;;;13.13;7.63;;;14.10;99.90;;;;;;5017318;28;20096;-64
2022/07/01 04:02:03;;;;;;;13.35;7.28;;;14.10;99.90;;;;;;5017304;28;20041;-64
2022/07/01 04:04:28;;;;;;;11.25;6.75;;;14.30;99.90;;;;;;5017435;28;20042;-63
2022/07/01 04:06:56;;;;;;;12.77;6.50;;;14.30;99.90;;;;;;5017341;28;20048;-63
2022/07/01 04:09:23;;;;;;;11.60;6.25;;;14.20;99.90;;;;;;5016931;28;20089;-63
2022/07/01 04:11:50;;;;;;;14.18;5.45;;;14.10;99.90;;;;;;5017387;28;20368;-63
2022/07/01 04:14:15;;;;;;;11.13;5.35;;;14.10;99.90;;;;;;5016939;28;20046;-64
2022/07/01 04:16:42;;;;;;;10.75;4.93;;;14.00;99.90;;;;;;5017027;28;20049;-63
2022/07/01 04:19:09;;;;;;;9.75;5.55;;;14.00;99.90;;;;;;5017012;28;20042;-63
2022/07/01 04:24:19;;;;;;;14.63;5.50;;;14.20;99.90;;;;;;5016229;28;20049;-63
2022/07/01 04:26:45;;;;;;;10.00;4.95;;;14.20;99.90;;;;;;5016718;28;20465;-64
2022/07/01 04:29:10;;;;;;;11.90;4.55;;;14.10;99.90;;;;;;5016966;28;20050;-63
2022/07/01 04:31:37;;;;;;;12.32;4.68;;;14.20;99.90;;;;;;5015738;28;20049;-63
2022/07/01 04:34:04;;;;;;;11.43;4.63;;;14.20;99.90;;;;;;5016770;28;20341;-63
2022/07/01 04:36:30;;;;;;;9.93;3.92;;;14.00;99.90;;;;;;5016934;28;20143;-63
2022/07/01 04:38:56;;;;;;;10.13;3.72;;;14.00;99.90;;;;;;5016653;28;20468;-63
2022/07/01 04:44:07;;;;;;;5.53;3.38;;;14.10;99.90;;;;;;5016431;28;20049;-63
2022/07/01 04:46:32;;;;;;;8.35;3.67;;;14.20;99.90;;;;;;5015832;28;20037;-63
2022/07/01 04:48:58;;;;;;;11.20;3.75;;;14.10;99.90;;;;;;5015800;28;20061;-63
2022/07/01 04:51:23;;;;;;;14.65;4.10;;;14.20;99.90;;;;;;5016547;28;20046;-63
2022/07/01 04:53:49;;;;;;;11.10;3.42;;;14.10;99.90;;;;;;5016377;28;20116;-64
2022/07/01 04:56:15;;;;;;;12.05;4.28;;;14.20;99.90;;;;;;5016290;28;20050;-63
2022/07/01 04:58:41;;;;;;;8.75;4.25;;;14.20;99.90;;;;;;5016662;28;20049;-63
2022/07/01 05:01:06;;;;;;;14.48;5.57;;;14.20;99.90;;;;;;5007035;28;20070;-63
2022/07/01 05:03:32;;;;;;;14.70;4.38;;;14.20;99.90;;;;;;5001327;28;20440;-63
2022/07/01 05:05:58;;;;;;;9.35;4.68;;;14.00;99.90;;;;;;5016184;28;20085;-63
2022/07/01 05:08:23;;;;;;;9.15;4.88;;;14.10;99.90;;;;;;5016145;28;20045;-63
2022/07/01 05:10:49;;;;;;;14.18;5.00;;;14.10;99.90;;;;;;5014337;28;20050;-63
2022/07/01 05:13:14;;;;;;;9.25;5.40;;;14.20;99.90;;;;;;5015669;28;20404;-63
2022/07/01 05:15:40;;;;;;;11.68;5.80;;;14.30;99.90;;;;;;5015953;28;20049;-63
2022/07/01 05:23:35;;;;;;;10.45;6.13;;;14.20;99.90;;;;;;5015454;28;20448;-63
2022/07/01 05:26:01;;;;;;;16.23;6.75;;;14.30;99.90;;;;;;5014873;28;20345;-63
2022/07/01 05:28:27;;;;;;;21.67;6.60;;;14.40;99.90;;;;;;5015573;28;20129;-63
2022/07/01 05:30:53;;;;;;;12.32;6.50;;;14.30;99.90;;;;;;5015201;28;20128;-63
2022/07/01 05:33:21;;;;;;;14.60;6.22;;;14.40;99.90;;;;;;5015054;28;20050;-63
2022/07/01 05:35:49;;;;;;;15.25;6.82;;;14.50;99.90;;;;;;5014142;28;20060;-63
2022/07/01 05:38:15;;;;;;;14.57;6.97;;;14.60;99.90;;;;;;5015248;28;20484;-63
2022/07/01 05:40:40;;;;;;;12.60;6.57;;;14.60;99.90;;;;;;5015711;28;20042;-63
2022/07/01 05:43:06;;;;;;;14.95;6.28;;;14.60;99.90;;;;;;5014935;28;20504;-64
2022/07/01 05:45:31;;;;;;;14.30;7.05;;;14.70;99.90;;;;;;5015216;28;20042;-64
2022/07/01 05:47:57;;;;;;;16.83;7.47;;;14.70;99.90;;;;;;5015716;28;20092;-65
2022/07/01 05:50:23;;;;;;;10.82;6.93;;;14.80;99.90;;;;;;5014990;28;20096;-64
2022/07/01 05:52:49;;;;;;;20.27;7.70;;;14.80;99.90;;;;;;5015356;28;20137;-64
2022/07/01 05:55:15;;;;;;;17.73;7.97;;;14.90;99.90;;;;;;5014958;28;20132;-65
2022/07/01 05:57:40;;;;;;;20.45;8.20;;;15.00;99.90;;;;;;5015392;28;20037;-65
2022/07/01 06:00:09;;;;;;;14.50;7.93;;;14.90;99.90;;;;;;5014828;28;20096;-64
2022/07/01 06:02:34;;;;;;;18.80;7.43;;;15.00;99.90;;;;;;5015343;28;20105;-64
2022/07/01 06:05:02;;;;;;;15.95;8.88;;;14.90;99.90;;;;;;5015278;28;20141;-64
2022/07/01 06:07:28;;;;;;;16.95;9.18;;;15.10;99.90;;;;;;5015276;28;20481;-64
2022/07/01 06:09:54;;;;;;;18.45;10.07;;;15.10;99.90;;;;;;5015425;28;20097;-64
2022/07/01 06:12:20;;;;;;;16.65;9.48;;;15.20;99.90;;;;;;5015221;28;20042;-64
2022/07/01 06:14:46;;;;;;;19.60;10.50;;;15.20;99.90;;;;;;5014394;28;20042;-64
2022/07/01 06:17:12;;;;;;;24.38;12.23;;;15.10;99.90;;;;;;5015053;28;20045;-64
2022/07/01 06:19:38;;;;;;;20.92;11.45;;;15.20;99.90;;;;;;5014907;28;20073;-64
2022/07/01 06:22:04;;;;;;;20.13;12.68;;;15.20;99.90;;;;;;5014964;28;20057;-64
2022/07/01 06:24:30;;;;;;;21.27;12.05;;;15.30;99.90;;;;;;5014980;28;20046;-64
2022/07/01 06:26:56;;;;;;;23.15;13.40;;;15.20;99.90;;;;;;5014440;28;20487;-64
2022/07/01 06:29:22;;;;;;;22.27;12.48;;;15.40;99.90;;;;;;5015078;28;20530;-64
2022/07/01 06:31:47;;;;;;;23.13;13.57;;;15.30;99.90;;;;;;5014882;28;20061;-64
2022/07/01 06:34:13;;;;;;;21.60;12.25;;;15.40;99.90;;;;;;5014534;28;20057;-64
2022/07/01 06:36:38;;;;;;;26.45;13.77;;;15.40;99.90;;;;;;5015097;28;20048;-64
2022/07/01 06:39:04;;;;;;;23.63;13.05;;;15.30;99.90;;;;;;5017423;28;20107;-65
2022/07/01 06:41:29;;;;;;;21.95;12.27;;;15.40;99.90;;;;;;5018779;28;20041;-65
2022/07/01 06:43:59;;;;;;;23.08;12.07;;;15.40;99.90;;;;;;5018132;28;20038;-65
2022/07/01 06:46:26;;;;;;;20.52;11.57;;;15.40;99.90;;;;;;5018215;28;20060;-65
2022/07/01 06:48:52;;;;;;;24.52;11.80;;;15.40;99.90;;;;;;5001362;28;20073;-65
2022/07/01 06:51:18;;;;;;;20.27;10.65;;;15.50;99.90;;;;;;5018461;28;20074;-64
2022/07/01 06:53:46;;;;;;;14.93;9.18;;;15.60;99.90;;;;;;5018609;28;20053;-63
2022/07/01 06:56:15;;;;;;;23.85;8.95;;;15.50;99.90;;;;;;5018733;28;20081;-64
2022/07/01 06:58:41;;;;;;;21.88;10.43;;;15.60;99.90;;;;;;5015698;28;20073;-65
2022/07/01 07:01:06;;;;;;;20.80;9.02;;;15.70;99.90;;;;;;5038066;28;20444;-64
2022/07/01 07:03:32;;;;;;;16.27;8.52;;;15.70;99.90;;;;;;5038259;28;20041;-64
2022/07/01 07:06:00;;;;;;;16.92;8.00;;;15.80;99.90;;;;;;5038246;28;20521;-64
2022/07/01 07:08:26;;;;;;;15.70;7.35;;;15.80;99.90;;;;;;5037693;28;20053;-65
2022/07/01 07:10:52;;;;;;;17.35;7.32;;;15.80;99.90;;;;;;5020547;28;20060;-65
2022/07/01 07:13:18;;;;;;;16.13;6.55;;;15.90;99.90;;;;;;5017491;28;20037;-63
2022/07/01 07:15:44;;;;;;;13.23;6.38;;;16.00;99.90;;;;;;5016008;28;20372;-65
2022/07/01 07:18:09;;;;;;;20.38;5.97;;;16.00;99.90;;;;;;5018128;28;20045;-63
2022/07/01 07:20:35;;;;;;;19.95;6.05;;;16.10;99.90;;;;;;5017792;28;20056;-63
2022/07/01 07:23:01;;;;;;;14.98;5.13;;;16.00;99.90;;;;;;5015827;28;20053;-63
2022/07/01 07:25:27;;;;;;;13.50;4.97;;;16.20;99.90;;;;;;5016338;28;20042;-63
2022/07/01 07:27:52;;;;;;;12.98;5.57;;;16.20;99.90;;;;;;5007969;28;20093;-63
2022/07/01 07:30:19;;;;;;;11.52;4.68;;;16.20;99.90;;;;;;4998056;28;20047;-63
2022/07/01 07:32:44;;;;;;;14.27;4.00;;;16.40;99.90;;;;;;4998415;28;20042;-64
2022/07/01 07:35:10;;;;;;;11.40;4.40;;;16.30;99.90;;;;;;4998379;28;20519;-64
2022/07/01 07:37:36;;;;;;;11.70;3.85;;;16.30;99.90;;;;;;5022143;28;20056;-63
2022/07/01 07:40:03;;;;;;;13.38;4.40;;;16.40;99.90;;;;;;5017947;28;20060;-63
2022/07/01 07:42:29;;;;;;;12.27;3.88;;;16.50;99.90;;;;;;5017819;28;20100;-64
2022/07/01 07:44:55;;;;;;;8.73;3.72;;;16.70;99.90;;;;;;5017635;28;20419;-64
2022/07/01 07:47:21;;;;;;;13.88;4.25;;;16.70;99.90;;;;;;5017571;28;20045;-64
2022/07/01 07:49:46;;;;;;;8.05;3.40;;;16.80;99.90;;;;;;5017002;28;20114;-64
2022/07/01 07:52:12;;;;;;;13.43;3.70;;;16.80;99.90;;;;;;5020003;28;20045;-64
2022/07/01 07:54:38;;;;;;;8.57;3.42;;;16.80;99.90;;;;;;5017596;28;20049;-64
2022/07/01 07:57:05;;;;;;;10.60;3.75;;;16.80;99.90;;;;;;5016861;28;20061;-64
2022/07/01 07:59:30;;;;;;;12.55;3.90;;;16.90;99.90;;;;;;5017456;28;20053;-64
2022/07/01 08:01:56;;;;;;;5.63;2.88;;;16.90;99.90;;;;;;5017319;28;20348;-64
2022/07/01 08:04:22;;;;;;;5.57;3.10;;;17.20;99.90;;;;;;5017277;28;20082;-64
2022/07/01 08:06:47;;;;;;;10.20;3.90;;;17.50;99.90;;;;;;5015848;28;20472;-64
2022/07/01 08:09:13;;;;;;;9.02;3.40;;;17.60;99.90;;;;;;5016799;28;20129;-63
2022/07/01 08:11:38;;;;;;;10.25;3.65;;;17.70;99.90;;;;;;5017301;28;20038;-63
2022/07/01 08:14:04;;;;;;;7.63;3.00;;;17.70;99.90;;;;;;5016976;28;20042;-64
2022/07/01 08:16:30;;;;;;;8.18;2.97;;;17.60;99.90;;;;;;5017074;28;20042;-63
2022/07/01 08:18:56;;;;;;;10.85;3.50;;;17.60;99.90;;;;;;5017221;28;20475;-64
2022/07/01 08:21:21;;;;;;;8.73;2.78;;;17.50;99.90;;;;;;5016464;28;20068;-63
2022/07/01 08:23:47;;;;;;;11.20;3.03;;;17.60;99.90;;;;;;5017076;28;20042;-63
2022/07/01 08:26:14;;;;;;;8.18;2.88;;;17.50;99.90;;;;;;5017078;28;20478;-63
2022/07/01 08:28:40;;;;;;;8.05;2.40;;;17.60;99.90;;;;;;5016785;28;20050;-64
2022/07/01 08:31:06;;;;;;;10.70;3.22;;;17.40;99.90;;;;;;5016482;28;20419;-63
2022/07/01 08:33:31;;;;;;;5.63;2.40;;;17.40;99.90;;;;;;5014447;28;20058;-63
2022/07/01 08:35:57;;;;;;;13.38;3.67;;;17.30;99.90;;;;;;5016901;28;20054;-64
2022/07/01 08:38:23;;;;;;;8.55;3.13;;;17.30;99.90;;;;;;5015856;28;20484;-63
2022/07/01 08:40:48;;;;;;;6.43;2.63;;;17.40;99.90;;;;;;5016370;28;20082;-63
2022/07/01 08:43:14;;;;;;;7.93;3.33;;;17.40;99.90;;;;;;5016560;28;20038;-64
2022/07/01 08:45:41;;;;;;;8.45;2.95;;;17.50;99.90;;;;;;5014862;28;20042;-64
2022/07/01 08:48:06;;;;;;;8.05;2.97;;;17.50;99.90;;;;;;4999387;28;20463;-64
2022/07/01 08:50:37;;;;;;;9.55;3.00;;;17.60;99.90;;;;;;5016489;28;20057;-63
2022/07/01 08:53:04;;;;;;;10.57;2.63;;;17.80;99.90;;;;;;5016649;28;20431;-64
2022/07/01 08:55:30;;;;;;;10.43;3.25;;;17.90;99.90;;;;;;5016660;28;20376;-66
2022/07/01 08:57:56;;;;;;;7.88;2.45;;;17.90;99.90;;;;;;5016327;28;20049;-64
2022/07/01 09:00:22;;;;;;;6.63;2.22;;;18.00;99.90;;;;;;5015640;28;20053;-65
2022/07/01 09:02:57;;;;;;;9.35;2.47;;;18.30;99.90;;;;;;5015252;28;20408;-64
2022/07/01 09:05:24;;;;;;;9.90;2.42;;;18.50;99.90;;;;;;5016054;28;20053;-64
2022/07/01 09:07:56;;;;;;;6.97;2.92;;;18.30;99.90;;;;;;5016254;28;20100;-64
2022/07/01 09:10:23;;;;;;;6.65;2.13;;;17.90;99.90;;;;;;4998826;28;20050;-64
2022/07/01 09:12:48;;;;;;;7.03;2.03;;;17.80;99.90;;;;;;5015949;28;20033;-64
2022/07/01 09:15:26;;;;;;;6.00;2.10;;;17.80;99.90;;;;;;5015584;28;20437;-64
2022/07/01 09:18:13;;;;;;;2.78;1.58;;;17.70;99.90;;;;;;5015767;28;20511;-64
2022/07/01 09:20:43;;;;;;;6.45;1.75;;;17.80;99.90;;;;;;5015904;28;20089;-64
2022/07/01 09:23:10;;;;;;;6.72;2.15;;;17.80;99.90;;;;;;5015924;28;20551;-64
2022/07/01 09:25:51;;;;;;;7.78;1.90;;;18.00;99.90;;;;;;5015846;28;20046;-64
2022/07/01 09:28:22;;;;;;;7.78;2.75;;;18.20;99.90;;;;;;5015632;28;20049;-64
2022/07/01 09:30:57;;;;;;;5.82;1.90;;;18.20;99.90;;;;;;5014938;28;20046;-64
2022/07/01 09:33:27;;;;;;;4.05;1.58;;;18.00;99.90;;;;;;5015040;28;20384;-64
2022/07/01 09:35:53;;;;;;;6.57;2.50;;;18.00;99.90;;;;;;5015654;28;20448;-64
2022/07/01 09:38:21;;;;;;;5.13;1.55;;;17.90;99.90;;;;;;5015472;28;20360;-64
2022/07/01 09:41:11;;;;;;;4.75;1.80;;;18.10;99.90;;;;;;5015450;28;20050;-63
2022/07/01 09:43:37;;;;;;;5.30;1.90;;;18.30;99.90;;;;;;5015472;28;20107;-64
2022/07/01 09:46:08;;;;;;;4.40;2.33;;;18.40;99.90;;;;;;5014976;28;20060;-64
2022/07/01 09:48:34;;;;;;;4.75;1.98;;;18.30;99.90;;;;;;5015368;28;20038;-64
2022/07/01 09:51:01;;;;;;;6.10;1.80;;;18.10;99.90;;;;;;5015476;28;20065;-64
2022/07/01 09:53:26;;;;;;;7.05;2.30;;;18.10;99.90;;;;;;5015595;28;20157;-64
2022/07/01 09:55:52;;;;;;;6.57;2.20;;;18.00;99.90;;;;;;5015540;28;20452;-63
2022/07/01 09:58:19;;;;;;;5.68;2.22;;;18.00;99.90;;;;;;5015253;28;20061;-65
2022/07/01 10:00:44;;;;;;;6.65;2.00;;;17.90;99.90;;;;;;5020047;28;20033;-65
2022/07/01 10:03:11;;;;;;;4.25;1.98;;;17.80;99.90;;;;;;5015051;28;20049;-64
2022/07/01 10:05:45;;;;;;;6.95;1.80;;;17.80;99.90;;;;;;5015242;28;20050;-64
2022/07/01 10:08:25;;;;;;;11.38;2.40;;;17.70;99.90;;;;;;5015408;28;20046;-64
2022/07/01 10:11:34;;;;;;;7.72;2.22;;;17.60;99.90;;;;;;4995602;28;20181;-64
2022/07/01 10:14:03;;;;;;;10.95;2.90;;;17.50;99.90;;;;;;4988336;28;20520;-63
2022/07/01 10:16:29;;;;;;;4.90;2.60;;;17.60;99.90;;;;;;5005030;28;20057;-65
2022/07/01 10:18:56;;;;;;;11.07;2.83;;;17.60;99.90;;;;;;5015219;28;20046;-64
2022/07/01 10:21:30;;;;;;;8.13;3.10;;;17.60;99.90;;;;;;5014997;28;20049;-64
2022/07/01 10:24:16;;;;;;;7.40;2.65;;;17.60;99.90;;;;;;5014924;28;20132;-63
2022/07/01 10:26:42;;;;;;;5.43;2.60;;;17.70;99.90;;;;;;5014979;28;20045;-65
2022/07/01 10:29:31;;;;;;;8.05;2.78;;;17.80;99.90;;;;;;5015034;28;20041;-64
2022/07/01 10:32:01;;;;;;;8.45;3.40;;;17.70;99.90;;;;;;5013954;28;20046;-64
2022/07/01 10:34:34;;;;;;;6.18;2.83;;;17.80;99.90;;;;;;5034351;28;20045;-65
2022/07/01 10:37:09;;;;;;;7.97;3.50;;;17.90;99.90;;;;;;5034334;28;20068;-64
2022/07/01 10:39:53;;;;;;;5.63;3.63;;;17.90;99.90;;;;;;5034751;28;20065;-64
2022/07/01 10:42:19;;;;;;;5.18;3.03;;;17.90;99.90;;;;;;5034465;28;20049;-63
2022/07/01 10:45:06;;;;;;;6.28;2.75;;;17.70;99.90;;;;;;5025887;28;20064;-64
2022/07/01 10:47:32;;;;;;;3.95;1.50;;;17.80;99.90;;;;;;4980356;28;20101;-63
2022/07/01 10:50:03;;;;;;;5.22;1.65;;;17.90;99.90;;;;;;5012221;28;20125;-64
2022/07/01 10:52:29;;;;;;;5.40;2.15;;;18.00;99.90;;;;;;5011761;28;20042;-65
2022/07/01 10:54:57;;;;;;;2.90;1.90;;;18.10;99.90;;;;;;5014606;28;20096;-64
2022/07/01 10:57:31;;;;;;;5.88;2.80;;;18.20;99.90;;;;;;5014146;28;20472;-64
2022/07/01 10:59:59;;;;;;;5.95;2.28;;;18.40;99.90;;;;;;5014886;28;20041;-64
2022/07/01 11:02:25;;;;;;;7.68;2.67;;;18.60;99.90;;;;;;4997662;28;20089;-64
2022/07/01 11:04:54;;;;;;;5.50;2.30;;;18.40;99.90;;;;;;5014524;28;20420;-64
2022/07/01 11:07:20;;;;;;;4.65;2.03;;;18.40;99.90;;;;;;5014262;28;20119;-64
2022/07/01 11:09:46;;;;;;;3.22;2.30;;;18.60;99.90;;;;;;5014472;28;20046;-64
2022/07/01 11:12:16;;;;;;;5.13;1.70;;;18.80;99.90;;;;;;5014151;28;20042;-64
2022/07/01 11:14:42;;;;;;;6.35;1.98;;;19.30;99.90;;;;;;5013916;28;20121;-65
2022/07/01 11:17:08;;;;;;;8.23;2.55;;;19.40;99.90;;;;;;5014721;28;20457;-64
2022/07/01 11:19:35;;;;;;;6.03;1.60;;;19.50;99.90;;;;;;5014517;28;20052;-65
2022/07/01 11:22:02;;;;;;;5.28;2.00;;;19.60;99.90;;;;;;5014558;28;20518;-65
2022/07/01 11:24:28;;;;;;;7.28;2.35;;;19.40;99.90;;;;;;5012834;28;20131;-65
2022/07/01 11:27:06;;;;;;;4.43;1.98;;;19.10;99.90;;;;;;5017991;28;20065;-63
2022/07/01 11:29:32;;;;;;;6.10;2.28;;;18.80;99.90;;;;;;5018174;28;20131;-63
2022/07/01 11:31:57;;;;;;;5.63;2.50;;;18.80;99.90;;;;;;5018106;28;20464;-63
2022/07/01 11:34:26;;;;;;;7.88;1.95;;;18.50;99.90;;;;;;5017339;28;20515;-63
2022/07/01 11:39:36;;;;;;;3.42;1.90;;;19.00;99.90;;;;;;5017199;28;20116;-64
2022/07/01 11:42:06;;;;;;;4.63;1.77;;;19.40;99.90;;;;;;5017874;28;20077;-64
2022/07/01 11:44:41;;;;;;;5.15;2.28;;;19.60;99.90;;;;;;5017795;28;20045;-64
2022/07/01 11:47:09;;;;;;;5.25;1.40;;;19.60;99.90;;;;;;5017806;28;20116;-64
2022/07/01 11:49:46;;;;;;;3.60;1.50;;;19.30;99.90;;;;;;5017426;28;20042;-63
2022/07/01 11:52:15;;;;;;;6.05;1.80;;;19.20;99.90;;;;;;5016995;28;20042;-64
2022/07/01 11:54:44;;;;;;;6.47;2.28;;;19.60;99.90;;;;;;5017589;28;20107;-63
2022/07/01 11:57:19;;;;;;;3.03;1.50;;;19.20;99.90;;;;;;5017280;28;20060;-64
2022/07/01 11:59:47;;;;;;;4.22;1.65;;;19.40;99.90;;;;;;5017483;28;20392;-63
2022/07/01 12:02:15;;;;;;;7.55;1.60;;;19.40;99.90;;;;;;5017637;28;20096;-64
2022/07/01 12:04:42;;;;;;;5.30;2.17;;;19.50;99.90;;;;;;5017409;28;20121;-64
2022/07/01 12:07:10;;;;;;;3.00;1.25;;;19.30;99.90;;;;;;5016702;28;20053;-64
2022/07/01 12:09:36;;;;;;;3.30;1.10;;;19.20;99.90;;;;;;5017235;28;20124;-64
2022/07/01 12:12:03;;;;;;;6.57;2.03;;;19.00;99.90;;;;;;5017232;28;20487;-64
2022/07/01 12:14:31;;;;;;;8.02;2.33;;;18.90;99.90;;;;;;5017067;28;20053;-64
2022/07/01 12:17:00;;;;;;;4.55;1.30;;;19.20;99.90;;;;;;5017132;28;20081;-64
2022/07/01 12:19:36;;;;;;;7.55;1.48;;;19.00;99.90;;;;;;5017128;28;20129;-64
2022/07/01 12:22:09;;;;;;;2.90;1.15;;;19.40;99.90;;;;;;5016637;28;20077;-64
2022/07/01 12:24:34;;;;;;;7.13;1.88;;;19.70;99.90;;;;;;5016755;28;20042;-64
2022/07/01 12:27:01;;;;;;;5.93;1.50;;;20.20;99.90;;;;;;5016821;28;20042;-64
2022/07/01 12:29:29;;;;;;;4.57;1.60;;;20.70;99.90;;;;;;5016938;28;20096;-64
2022/07/01 12:31:57;;;;;;;4.00;1.25;;;20.70;99.90;;;;;;5016851;28;20046;-64
2022/07/01 12:34:43;;;;;;;6.63;1.67;;;21.00;99.90;;;;;;5016932;28;20081;-64
2022/07/01 12:37:15;;;;;;;6.53;1.83;;;21.40;99.90;;;;;;5013551;28;20049;-65
2022/07/01 12:39:46;;;;;;;4.68;1.40;;;20.90;99.90;;;;;;5016502;28;20124;-64
2022/07/01 12:42:28;;;;;;;5.60;1.65;;;20.50;99.90;;;;;;5016688;28;20124;-64
2022/07/01 12:44:57;;;;;;;7.60;1.70;;;20.90;99.90;;;;;;5016698;28;20089;-65
2022/07/01 12:47:34;;;;;;;8.55;2.08;;;20.80;99.90;;;;;;5016548;28;20180;-65
2022/07/01 12:50:15;;;;;;;7.00;1.73;;;21.10;99.90;;;;;;5015636;28;20455;-64
2022/07/01 12:52:46;;;;;;;9.70;2.20;;;21.30;99.90;;;;;;5015751;28;20124;-65
2022/07/01 12:55:16;;;;;;;7.18;1.70;;;20.70;99.90;;;;;;5016582;28;20042;-65
2022/07/01 12:57:42;;;;;;;9.30;1.80;;;20.80;99.90;;;;;;5016510;28;20136;-64